Time;durP1;ratioP1;P1;durP2;ratioP2;P2;SDS_P1;SDS_P2;PMS_P1;PMS_P2;Temp;Humidity;BMP_temperature;BMP_pressure;BME280_temperature;BME280_humidity;BME280_pressure;Samples;Min_cycle;Max_cycle;Signal;HPM_P1;HPM_P2
2023/06/15 00:01:55;;;;;;;2.95;1.90;;;;;;;18.10;58.63;101512.97;4984149;28;20516;-73
2023/06/15 00:04:21;;;;;;;4.95;2.05;;;;;;;18.09;58.77;101508.75;4995578;28;20049;-73
2023/06/15 00:06:46;;;;;;;2.95;1.60;;;;;;;18.07;59.01;101510.75;4999139;28;20503;-73
2023/06/15 00:09:12;;;;;;;3.83;1.85;;;;;;;18.02;59.15;101507.88;4991549;28;20126;-73
2023/06/15 00:11:38;;;;;;;3.80;1.70;;;;;;;17.98;59.39;101515.28;4960640;28;20041;-72
2023/06/15 00:14:03;;;;;;;2.30;1.73;;;;;;;17.94;59.48;101511.44;4991661;28;20057;-73
2023/06/15 00:16:31;;;;;;;3.63;2.30;;;;;;;17.88;59.98;101512.19;5004001;28;20034;-73
2023/06/15 00:18:58;;;;;;;3.45;2.00;;;;;;;17.84;60.27;101510.91;4991056;28;20046;-73
2023/06/15 00:21:27;;;;;;;4.03;1.90;;;;;;;17.83;60.37;101522.38;4981078;28;20040;-73
2023/06/15 00:23:52;;;;;;;4.50;2.60;;;;;;;17.76;60.69;101521.50;4980334;28;20485;-73
2023/06/15 00:26:20;;;;;;;2.88;1.67;;;;;;;17.73;60.92;101521.91;4975847;28;20031;-73
2023/06/15 00:28:47;;;;;;;3.60;1.60;;;;;;;17.71;60.79;101522.06;4981646;28;20126;-73
2023/06/15 00:31:13;;;;;;;2.45;1.80;;;;;;;17.69;60.81;101511.75;4975796;28;20121;-73
2023/06/15 00:33:38;;;;;;;2.65;1.98;;;;;;;17.65;61.12;101522.78;4976044;28;20073;-73
2023/06/15 00:36:07;;;;;;;4.25;2.28;;;;;;;17.61;61.36;101518.91;4978328;28;20026;-73
2023/06/15 00:38:33;;;;;;;3.03;1.95;;;;;;;17.57;61.67;101528.16;4962405;28;20057;-73
2023/06/15 00:40:59;;;;;;;2.13;1.50;;;;;;;17.56;61.74;101524.72;5000298;28;20025;-72
2023/06/15 00:43:27;;;;;;;4.95;1.85;;;;;;;17.55;61.96;101528.34;4999179;28;20049;-73
2023/06/15 00:45:53;;;;;;;2.75;1.88;;;;;;;17.53;62.38;101527.72;4998551;28;20045;-73
2023/06/15 00:48:20;;;;;;;5.65;1.95;;;;;;;17.51;62.47;101527.09;4996207;28;20050;-73
2023/06/15 00:50:45;;;;;;;7.25;1.83;;;;;;;17.48;62.60;101530.09;4998969;28;20045;-73
2023/06/15 00:53:11;;;;;;;4.50;2.10;;;;;;;17.45;62.70;101538.31;4995191;28;20057;-73
2023/06/15 00:55:39;;;;;;;3.25;2.10;;;;;;;17.42;62.89;101528.19;4997276;28;20523;-73
2023/06/15 00:58:06;;;;;;;4.70;2.05;;;;;;;17.38;62.70;101532.97;5013331;28;20377;-73
2023/06/15 01:00:32;;;;;;;3.03;2.10;;;;;;;17.36;62.91;101534.97;5001265;28;20547;-73
2023/06/15 01:02:59;;;;;;;2.72;1.80;;;;;;;17.32;63.01;101531.91;5001570;28;20053;-73
2023/06/15 01:05:24;;;;;;;5.03;2.20;;;;;;;17.28;63.25;101535.88;4996893;28;20128;-73
2023/06/15 01:07:52;;;;;;;2.15;1.73;;;;;;;17.27;63.49;101538.69;4996615;28;20396;-73
2023/06/15 01:10:23;;;;;;;3.30;2.30;;;;;;;17.21;63.74;101540.22;5010382;28;20698;-73
2023/06/15 01:12:53;;;;;;;5.22;2.28;;;;;;;17.13;64.23;101535.91;5010718;28;20116;-73
2023/06/15 01:15:21;;;;;;;2.50;1.95;;;;;;;17.10;64.21;101532.81;4964286;28;20157;-73
2023/06/15 01:17:53;;;;;;;6.07;2.20;;;;;;;17.07;64.35;101533.19;4994416;28;20026;-73
2023/06/15 01:20:26;;;;;;;2.55;1.85;;;;;;;17.04;64.53;101529.13;4984668;28;20078;-73
2023/06/15 01:22:55;;;;;;;;;;;;;;;17.02;64.66;101532.91;4997671;28;20034;-73
2023/06/15 01:25:53;;;;;;;4.93;2.13;;;;;;;16.97;64.76;101536.09;4984729;28;19929;-73
2023/06/15 01:28:20;;;;;;;4.30;1.90;;;;;;;16.92;64.97;101531.38;4996383;28;20050;-73
2023/06/15 01:30:55;;;;;;;5.78;2.17;;;;;;;16.87;65.26;101536.34;4980188;28;20038;-73
2023/06/15 01:33:22;;;;;;;6.45;2.40;;;;;;;16.83;65.32;101529.84;4981257;28;20091;-73
2023/06/15 01:35:47;;;;;;;3.50;1.90;;;;;;;16.80;65.69;101534.59;4980710;28;20037;-73
2023/06/15 01:38:23;;;;;;;3.67;2.20;;;;;;;16.76;65.86;101535.94;4981039;28;20037;-73
2023/06/15 01:40:50;;;;;;;5.30;2.47;;;;;;;16.70;66.32;101537.47;4985508;28;20121;-73
2023/06/15 01:43:25;;;;;;;4.45;3.15;;;;;;;16.62;66.75;101535.75;4983978;28;20928;-73
2023/06/15 01:45:53;;;;;;;3.40;2.45;;;;;;;16.52;67.20;101540.44;5000220;28;22063;-72
2023/06/15 01:48:19;;;;;;;4.47;2.22;;;;;;;16.47;67.62;101543.56;5000659;28;20129;-73
2023/06/15 01:50:45;;;;;;;3.42;2.08;;;;;;;16.40;67.91;101547.88;4998633;28;20463;-72
2023/06/15 01:53:10;;;;;;;4.03;2.40;;;;;;;16.39;67.93;101541.03;4985242;28;20033;-73
2023/06/15 01:55:36;;;;;;;5.57;2.67;;;;;;;16.39;67.79;101545.41;5001354;28;21959;-73
2023/06/15 01:58:02;;;;;;;5.68;2.92;;;;;;;16.39;67.78;101542.81;5001370;28;20029;-73
2023/06/15 02:00:28;;;;;;;4.80;2.20;;;;;;;16.37;67.54;101545.63;4979116;28;20556;-72
2023/06/15 02:02:53;;;;;;;3.80;2.25;;;;;;;16.34;67.80;101546.78;4978861;28;20081;-73
2023/06/15 02:05:19;;;;;;;4.10;2.10;;;;;;;16.30;67.62;101542.06;4975647;28;20050;-73
2023/06/15 02:07:47;;;;;;;4.47;2.45;;;;;;;16.25;68.22;101550.44;4975674;28;20378;-72
2023/06/15 02:10:18;;;;;;;4.65;2.10;;;;;;;16.18;68.48;101541.69;4994518;28;20073;-72
2023/06/15 02:12:44;;;;;;;6.80;2.63;;;;;;;16.12;69.03;101548.44;4995429;28;20046;-73
2023/06/15 02:15:17;;;;;;;5.70;2.20;;;;;;;16.04;69.12;101545.84;4967213;28;20070;-73
2023/06/15 02:17:44;;;;;;;3.63;2.33;;;;;;;15.93;69.68;101541.03;4977639;28;20034;-73
2023/06/15 02:20:12;;;;;;;3.33;2.17;;;;;;;15.76;70.36;101551.59;4988725;28;20502;-73
2023/06/15 02:22:38;;;;;;;3.47;2.30;;;;;;;15.54;71.26;101550.53;4982906;28;20038;-73
2023/06/15 02:25:04;;;;;;;4.20;2.33;;;;;;;15.35;72.00;101551.75;4995278;28;20050;-72
2023/06/15 02:27:30;;;;;;;6.18;3.50;;;;;;;15.28;72.36;101547.38;4981645;28;20480;-72
2023/06/15 02:29:55;;;;;;;3.28;2.67;;;;;;;15.26;72.68;101550.13;4997091;28;20142;-72
2023/06/15 02:32:36;;;;;;;3.50;2.45;;;;;;;15.25;72.68;101553.72;4997216;28;20041;-73
2023/06/15 02:35:10;;;;;;;3.28;2.13;;;;;;;15.17;73.03;101551.94;5000450;28;20524;-72
2023/06/15 02:37:42;;;;;;;2.78;2.15;;;;;;;15.19;73.04;101552.59;5013906;28;20405;-73
2023/06/15 02:40:09;;;;;;;5.05;2.20;;;;;;;15.22;73.17;101555.84;5000293;28;20045;-72
2023/06/15 02:42:36;;;;;;;4.40;2.00;;;;;;;15.24;73.44;101553.88;4983800;28;20033;-73
2023/06/15 02:45:02;;;;;;;2.78;2.17;;;;;;;15.27;73.31;101564.81;4990038;28;20267;-73
2023/06/15 02:47:31;;;;;;;6.25;2.58;;;;;;;15.30;73.35;101551.44;4976005;28;20046;-72
2023/06/15 02:49:59;;;;;;;3.80;2.50;;;;;;;15.32;73.16;101546.84;4976804;28;20054;-72
2023/06/15 02:52:26;;;;;;;3.50;2.42;;;;;;;15.34;72.93;101563.16;4982928;28;20113;-72
2023/06/15 02:54:52;;;;;;;4.82;2.50;;;;;;;15.38;72.97;101558.41;4961519;28;20529;-72
2023/06/15 02:57:19;;;;;;;4.68;2.80;;;;;;;15.37;72.89;101554.19;4984035;28;20030;-73
2023/06/15 03:00:13;;;;;;;4.80;2.25;;;;;;;15.33;73.21;101560.72;4981864;28;20054;-72
2023/06/15 03:02:43;;;;;;;4.28;2.47;;;;;;;15.31;73.37;101557.47;4982675;28;20409;-72
2023/06/15 03:05:09;;;;;;;3.45;2.90;;;;;;;15.30;73.52;101561.88;4995889;28;20058;-72
2023/06/15 03:07:44;;;;;;;5.97;2.80;;;;;;;15.28;73.74;101561.25;5004216;28;20909;-72
2023/06/15 03:10:21;;;;;;;2.80;2.20;;;;;;;15.26;73.83;101567.63;4997325;28;20046;-74
2023/06/15 03:12:47;;;;;;;4.15;2.97;;;;;;;15.25;73.86;101565.97;4986220;28;20607;-73
2023/06/15 03:15:16;;;;;;;3.47;2.55;;;;;;;15.23;73.88;101571.38;4999373;28;20049;-73
2023/06/15 03:17:42;;;;;;;2.45;2.10;;;;;;;15.18;74.17;101569.28;4999557;28;20031;-73
2023/06/15 03:20:11;;;;;;;3.65;2.33;;;;;;;15.17;74.31;101577.28;5000155;28;20049;-73
2023/06/15 03:22:38;;;;;;;3.10;2.50;;;;;;;15.15;74.22;101574.00;5004385;28;20069;-73
2023/06/15 03:25:05;;;;;;;4.55;2.38;;;;;;;15.11;74.23;101570.91;5004607;28;20038;-73
2023/06/15 03:27:32;;;;;;;3.35;2.60;;;;;;;15.11;74.12;101577.94;5000248;28;20030;-73
2023/06/15 03:30:01;;;;;;;4.00;2.25;;;;;;;15.07;74.12;101574.00;4999825;28;20049;-73
2023/06/15 03:32:28;;;;;;;5.90;2.92;;;;;;;14.92;74.65;101579.94;5002590;28;20023;-73
2023/06/15 03:34:57;;;;;;;6.72;2.60;;;;;;;14.83;74.93;101574.88;5002407;28;20456;-73
2023/06/15 03:37:24;;;;;;;4.72;2.72;;;;;;;14.83;74.93;101585.34;5001551;28;20033;-73
2023/06/15 03:39:50;;;;;;;4.70;2.97;;;;;;;14.84;75.06;101574.69;5003859;28;20084;-73
2023/06/15 03:42:17;;;;;;;3.55;2.60;;;;;;;14.84;75.07;101585.16;4988247;28;20633;-73
2023/06/15 03:44:42;;;;;;;4.18;3.05;;;;;;;14.86;75.31;101579.75;4990405;28;20041;-73
2023/06/15 03:47:08;;;;;;;4.18;2.88;;;;;;;14.88;75.51;101583.88;4986860;28;20170;-73
2023/06/15 03:49:33;;;;;;;5.60;2.60;;;;;;;14.88;75.50;101585.63;4990450;28;20090;-73
2023/06/15 03:52:00;;;;;;;5.45;2.78;;;;;;;14.86;76.02;101585.81;4982502;28;20156;-73
2023/06/15 03:54:25;;;;;;;5.22;3.08;;;;;;;14.85;76.34;101589.41;4998017;28;20043;-73
2023/06/15 03:56:51;;;;;;;6.00;2.85;;;;;;;14.85;76.62;101584.19;5006464;28;20460;-73
2023/06/15 03:59:16;;;;;;;6.90;3.22;;;;;;;14.86;76.97;101583.22;4983835;28;20074;-73
2023/06/15 04:01:43;;;;;;;4.88;3.10;;;;;;;14.88;76.72;101594.31;4985847;28;20076;-72
2023/06/15 04:04:08;;;;;;;5.63;2.78;;;;;;;14.88;76.98;101591.69;4985917;28;20053;-73
2023/06/15 04:06:35;;;;;;;6.13;3.13;;;;;;;14.88;77.25;101596.06;4983750;28;20416;-73
2023/06/15 04:09:03;;;;;;;4.72;3.03;;;;;;;14.88;77.17;101590.84;4984255;28;20049;-72
2023/06/15 04:11:29;;;;;;;5.30;2.80;;;;;;;14.88;77.27;101598.69;4980972;28;20497;-72
2023/06/15 04:13:55;;;;;;;5.32;3.08;;;;;;;14.87;77.38;101591.84;4989269;28;20046;-72
2023/06/15 04:16:22;;;;;;;9.23;3.13;;;;;;;14.86;77.48;101601.50;4988287;28;20468;-72
2023/06/15 04:18:48;;;;;;;5.38;2.53;;;;;;;14.82;77.68;101602.78;4976660;28;20050;-72
2023/06/15 04:21:14;;;;;;;6.63;3.50;;;;;;;14.71;78.42;101603.09;4986724;28;20125;-73
2023/06/15 04:23:42;;;;;;;9.02;3.13;;;;;;;14.57;79.32;101602.78;4983796;28;20046;-72
2023/06/15 04:26:08;;;;;;;5.68;2.90;;;;;;;14.51;79.66;101611.22;4986095;28;20509;-72
2023/06/15 04:28:35;;;;;;;5.47;3.03;;;;;;;14.43;80.26;101602.56;4998586;28;20068;-72
2023/06/15 04:31:09;;;;;;;6.20;2.75;;;;;;;14.41;80.17;101600.97;4981927;28;20489;-72
2023/06/15 04:33:36;;;;;;;5.00;2.95;;;;;;;14.45;80.30;101598.84;4988652;28;20073;-73
2023/06/15 04:36:03;;;;;;;3.72;2.90;;;;;;;14.53;80.22;101598.03;5004096;28;20044;-73
2023/06/15 04:38:29;;;;;;;5.35;3.33;;;;;;;14.62;79.86;101610.13;4997392;28;20042;-72
2023/06/15 04:40:56;;;;;;;4.18;3.00;;;;;;;14.72;79.76;101607.34;4983604;28;20596;-72
2023/06/15 04:43:22;;;;;;;5.38;3.15;;;;;;;14.79;79.54;101610.94;4999055;28;20046;-72
2023/06/15 04:45:48;;;;;;;4.35;2.85;;;;;;;14.81;80.19;101605.56;4997584;28;20031;-73
2023/06/15 04:48:19;;;;;;;6.65;4.25;;;;;;;14.83;80.67;101612.25;4987707;28;20125;-73
2023/06/15 04:50:48;;;;;;;4.53;2.90;;;;;;;14.86;80.65;101614.53;5004216;28;20045;-73
2023/06/15 04:53:17;;;;;;;7.72;3.75;;;;;;;14.93;80.38;101612.88;5000787;28;20058;-73
2023/06/15 04:55:43;;;;;;;5.55;3.15;;;;;;;15.02;80.38;101618.13;4982260;28;20049;-73
2023/06/15 04:58:09;;;;;;;5.88;3.63;;;;;;;15.09;79.98;101616.47;4982004;28;20034;-73
2023/06/15 05:00:35;;;;;;;7.85;3.78;;;;;;;15.17;80.25;101619.88;4985099;28;20057;-73
2023/06/15 05:03:02;;;;;;;6.47;3.67;;;;;;;15.26;80.50;101631.13;4982356;28;20034;-74
2023/06/15 05:05:28;;;;;;;5.05;3.10;;;;;;;15.34;80.18;101628.50;4964960;28;20030;-73
2023/06/15 05:07:54;;;;;;;8.60;3.92;;;;;;;15.46;79.98;101628.13;4967692;28;20117;-73
2023/06/15 05:10:19;;;;;;;7.43;3.85;;;;;;;15.56;80.11;101628.78;4980547;28;20050;-73
2023/06/15 05:12:46;;;;;;;8.57;4.07;;;;;;;15.65;79.40;101621.69;4980199;28;20037;-72
2023/06/15 05:15:16;;;;;;;8.20;4.53;;;;;;;15.77;79.17;101623.00;4979942;28;20050;-72
2023/06/15 05:17:41;;;;;;;10.10;4.60;;;;;;;15.86;78.72;101616.75;4984246;28;20125;-73
2023/06/15 05:20:08;;;;;;;5.15;3.75;;;;;;;16.00;78.72;101627.47;4978543;28;20142;-73
2023/06/15 05:22:34;;;;;;;6.22;3.45;;;;;;;16.13;78.53;101620.66;4978829;28;20100;-72
2023/06/15 05:24:59;;;;;;;8.48;4.43;;;;;;;16.27;78.58;101623.53;4983925;28;20049;-73
2023/06/15 05:27:28;;;;;;;8.57;4.22;;;;;;;16.40;78.14;101615.91;5005991;28;20025;-73
2023/06/15 05:29:56;;;;;;;11.05;5.18;;;;;;;16.53;76.88;101621.38;4988902;28;20100;-73
2023/06/15 05:32:22;;;;;;;10.15;5.13;;;;;;;16.63;75.78;101622.94;4988312;28;20027;-73
2023/06/15 05:34:48;;;;;;;12.88;5.82;;;;;;;16.77;74.54;101622.19;4985869;28;20077;-72
2023/06/15 05:37:14;;;;;;;10.73;5.28;;;;;;;16.91;73.71;101623.22;4982170;28;20034;-73
2023/06/15 05:39:40;;;;;;;10.25;4.80;;;;;;;17.08;72.63;101614.25;4965690;28;20038;-73
2023/06/15 05:42:06;;;;;;;7.82;4.32;;;;;;;17.29;72.51;101628.41;4983651;28;20081;-73
2023/06/15 05:44:33;;;;;;;10.68;5.65;;;;;;;17.53;70.96;101619.47;4981957;28;20050;-72
2023/06/15 05:47:03;;;;;;;14.82;5.72;;;;;;;17.65;69.85;101622.44;4982975;28;20104;-73
2023/06/15 05:49:29;;;;;;;7.22;4.38;;;;;;;17.79;69.30;101623.44;4991042;28;20049;-72
2023/06/15 05:51:55;;;;;;;7.05;4.15;;;;;;;17.96;69.02;101624.88;5004655;28;20492;-73
2023/06/15 05:54:26;;;;;;;10.68;4.75;;;;;;;18.17;67.48;101631.16;4991355;28;20042;-73
2023/06/15 05:56:52;;;;;;;9.93;4.25;;;;;;;18.38;67.09;101622.47;4983274;28;20049;-73
2023/06/15 05:59:19;;;;;;;10.18;4.55;;;;;;;18.60;66.16;101621.47;4983554;28;20046;-72
2023/06/15 06:01:44;;;;;;;12.20;4.70;;;;;;;18.83;65.80;101623.09;4983194;28;20030;-73
2023/06/15 06:04:10;;;;;;;8.23;3.88;;;;;;;19.11;65.37;101630.16;4973841;28;20065;-72
2023/06/15 06:06:35;;;;;;;9.98;4.10;;;;;;;19.33;64.38;101629.06;4983853;28;20116;-73
2023/06/15 06:09:01;;;;;;;10.05;4.20;;;;;;;19.58;63.51;101623.34;4981659;28;20048;-73
2023/06/15 06:11:27;;;;;;;7.88;3.45;;;;;;;19.76;62.39;101626.28;4981624;28;20033;-73
2023/06/15 06:13:57;;;;;;;8.55;4.40;;;;;;;19.96;61.22;101621.06;4988662;28;21073;-73
2023/06/15 06:16:23;;;;;;;8.88;4.22;;;;;;;20.11;60.77;101630.63;5000268;28;20033;-73
2023/06/15 06:18:49;;;;;;;9.68;4.93;;;;;;;20.22;60.00;101620.31;4998391;28;20081;-73
2023/06/15 06:21:15;;;;;;;13.68;4.50;;;;;;;20.48;60.02;101620.56;4997025;28;20165;-73
2023/06/15 06:23:41;;;;;;;8.07;3.95;;;;;;;20.80;59.02;101622.41;5002532;28;20041;-73
2023/06/15 06:26:07;;;;;;;9.27;4.13;;;;;;;20.97;57.54;101614.88;5003406;28;20546;-73
2023/06/15 06:28:32;;;;;;;9.77;4.07;;;;;;;21.32;56.08;101617.25;4997474;28;20050;-72
2023/06/15 06:30:58;;;;;;;8.32;3.72;;;;;;;21.57;54.87;101609.47;4984376;28;21259;-73
2023/06/15 06:33:23;;;;;;;11.07;3.72;;;;;;;21.67;54.29;101613.47;4989172;28;20050;-73
2023/06/15 06:35:49;;;;;;;8.02;3.83;;;;;;;21.86;54.04;101622.31;5002282;28;20731;-73
2023/06/15 06:38:14;;;;;;;29.02;12.98;;;;;;;22.01;52.08;101617.56;5001227;28;20045;-73
2023/06/15 06:40:40;;;;;;;12.10;6.15;;;;;;;22.16;50.28;101617.25;4987777;28;20559;-73
2023/06/15 06:43:05;;;;;;;10.20;3.50;;;;;;;22.39;49.34;101621.19;4985715;28;20053;-73
2023/06/15 06:45:31;;;;;;;9.85;3.15;;;;;;;22.71;49.12;101624.59;4986872;28;20034;-73
2023/06/15 06:47:56;;;;;;;8.68;3.35;;;;;;;22.98;48.43;101621.69;4987577;28;20095;-73
2023/06/15 06:50:22;;;;;;;10.48;3.35;;;;;;;23.09;47.33;101613.91;4983866;28;20042;-73
2023/06/15 06:52:47;;;;;;;8.32;3.45;;;;;;;23.34;47.44;101623.59;4982782;28;20035;-73
2023/06/15 06:55:13;;;;;;;6.18;3.45;;;;;;;23.52;46.56;101620.13;4984983;28;20874;-73
2023/06/15 06:57:38;;;;;;;5.82;3.50;;;;;;;23.96;45.80;101620.81;5002777;28;20193;-73
2023/06/15 07:00:06;;;;;;;10.57;3.88;;;;;;;24.07;44.44;101617.38;4983748;28;20049;-73
2023/06/15 07:02:32;;;;;;;10.13;3.17;;;;;;;24.44;44.72;101616.41;5001670;28;20033;-73
2023/06/15 07:04:57;;;;;;;9.15;3.53;;;;;;;24.77;43.47;101615.06;5006516;28;20042;-73
2023/06/15 07:07:22;;;;;;;6.35;3.25;;;;;;;25.16;41.85;101615.34;5008300;28;20038;-73
2023/06/15 07:09:48;;;;;;;7.68;3.00;;;;;;;25.50;41.53;101612.88;5002608;28;20093;-73
2023/06/15 07:12:13;;;;;;;5.03;2.85;;;;;;;25.66;39.94;101614.00;4997019;28;20029;-73
2023/06/15 07:14:42;;;;;;;4.75;2.55;;;;;;;25.58;39.92;101628.41;4985169;28;20097;-73
2023/06/15 07:17:16;;;;;;;4.53;3.03;;;;;;;25.87;39.46;101623.91;5001911;28;20041;-73
2023/06/15 07:19:42;;;;;;;4.97;3.42;;;;;;;25.83;39.16;101620.94;5001115;28;20083;-73
2023/06/15 07:22:07;;;;;;;5.85;2.63;;;;;;;25.91;39.98;101616.28;5004470;28;20108;-73
2023/06/15 07:24:35;;;;;;;5.20;2.97;;;;;;;26.30;39.52;101624.41;5006674;28;20053;-73
2023/06/15 07:27:01;;;;;;;15.82;2.88;;;;;;;26.78;39.09;101623.00;5000482;28;20044;-73
2023/06/15 07:29:27;;;;;;;12.67;2.90;;;;;;;26.96;38.08;101622.75;5003629;28;20050;-73
2023/06/15 07:31:53;;;;;;;8.70;2.97;;;;;;;27.02;37.96;101625.47;5006050;28;20075;-73
2023/06/15 07:34:18;;;;;;;9.35;2.60;;;;;;;27.23;37.27;101624.66;5017036;28;20515;-73
2023/06/15 07:36:44;;;;;;;5.53;2.40;;;;;;;27.41;36.17;101625.41;5003064;28;20045;-74
2023/06/15 07:39:10;;;;;;;6.30;2.40;;;;;;;27.53;36.17;101620.78;4988707;28;20504;-73
2023/06/15 07:41:36;;;;;;;4.43;3.03;;;;;;;27.52;36.00;101622.66;5005501;28;20036;-73
2023/06/15 07:44:04;;;;;;;5.65;2.75;;;;;;;27.31;36.31;101626.94;4998899;28;20616;-74
2023/06/15 07:46:30;;;;;;;7.00;2.80;;;;;;;27.51;35.61;101621.03;4982534;28;20092;-74
2023/06/15 07:48:55;;;;;;;8.65;3.92;;;;;;;27.30;34.74;101621.84;4994387;28;20041;-74
2023/06/15 07:51:24;;;;;;;6.63;2.55;;;;;;;27.05;35.55;101627.63;5004899;28;20104;-73
2023/06/15 07:53:49;;;;;;;6.75;2.50;;;;;;;27.35;35.68;101620.06;4988187;28;20104;-73
2023/06/15 07:56:15;;;;;;;8.68;3.28;;;;;;;27.59;34.44;101619.78;5005269;28;20188;-73
2023/06/15 07:58:40;;;;;;;8.07;2.75;;;;;;;27.79;34.71;101621.84;5003825;28;20463;-74
2023/06/15 08:01:06;;;;;;;3.83;2.72;;;;;;;28.01;33.92;101624.47;5007331;28;20025;-74
2023/06/15 08:03:31;;;;;;;3.80;2.40;;;;;;;28.10;33.74;101619.47;5000547;28;20501;-74
2023/06/15 08:05:57;;;;;;;10.05;2.60;;;;;;;28.21;33.02;101618.50;4983937;28;20065;-74
2023/06/15 08:08:22;;;;;;;3.88;2.53;;;;;;;28.56;32.14;101619.03;4982613;28;20101;-74
2023/06/15 08:10:48;;;;;;;4.75;2.60;;;;;;;28.80;31.82;101612.25;4984130;28;20025;-74
2023/06/15 08:13:14;;;;;;;6.47;2.50;;;;;;;28.93;32.05;101617.13;4984243;28;20026;-74
2023/06/15 08:15:40;;;;;;;6.90;2.45;;;;;;;28.91;31.37;101618.44;4984977;28;20027;-74
2023/06/15 08:18:05;;;;;;;3.42;2.08;;;;;;;28.97;32.46;101616.59;4985164;28;20037;-74
2023/06/15 08:20:31;;;;;;;7.63;3.38;;;;;;;29.02;30.50;101608.59;4969787;28;20162;-74
2023/06/15 08:22:59;;;;;;;9.05;2.53;;;;;;;28.83;31.43;101609.06;4983991;28;20405;-73
2023/06/15 08:25:25;;;;;;;7.40;2.83;;;;;;;29.02;30.92;101609.41;5003498;28;20068;-73
2023/06/15 08:27:51;;;;;;;10.48;2.90;;;;;;;28.90;31.61;101603.50;5013769;28;20104;-73
2023/06/15 08:30:17;;;;;;;11.57;3.10;;;;;;;28.52;31.36;101608.91;5002302;28;20054;-74
2023/06/15 08:32:42;;;;;;;10.90;3.10;;;;;;;28.42;32.75;101608.78;4989153;28;20038;-73
2023/06/15 08:35:08;;;;;;;9.95;3.42;;;;;;;28.78;32.32;101602.88;5002828;28;20125;-74
2023/06/15 08:37:35;;;;;;;7.00;2.60;;;;;;;28.87;32.00;101602.13;4999995;28;20027;-73
2023/06/15 08:40:05;;;;;;;7.75;3.17;;;;;;;29.17;32.21;101605.22;4999060;28;20490;-74
2023/06/15 08:42:33;;;;;;;5.85;2.78;;;;;;;29.66;30.93;101602.13;4982356;28;20534;-74
2023/06/15 08:44:59;;;;;;;9.30;3.20;;;;;;;30.01;30.01;101600.59;4993258;28;20638;-74
2023/06/15 08:47:26;;;;;;;8.13;2.30;;;;;;;29.93;30.11;101601.13;4982230;28;20080;-74
2023/06/15 08:49:52;;;;;;;8.75;2.83;;;;;;;30.12;30.44;101606.72;4965475;28;20127;-74
2023/06/15 08:52:21;;;;;;;8.82;3.22;;;;;;;30.34;29.37;101596.56;4980905;28;20042;-74
2023/06/15 08:54:49;;;;;;;8.02;3.05;;;;;;;29.89;29.75;101600.84;4981394;28;20050;-74
2023/06/15 08:57:15;;;;;;;5.78;2.80;;;;;;;29.98;29.85;101598.44;4996889;28;20091;-74
2023/06/15 08:59:42;;;;;;;5.07;2.40;;;;;;;30.01;30.66;101601.41;4992417;28;20043;-74
2023/06/15 09:02:13;;;;;;;8.30;2.50;;;;;;;29.91;30.93;101597.91;4999014;28;20034;-74
2023/06/15 09:04:38;;;;;;;8.10;3.13;;;;;;;29.72;30.61;101606.41;4995013;28;20045;-74
2023/06/15 09:07:05;;;;;;;12.95;3.38;;;;;;;29.65;30.35;101604.03;5006030;28;20029;-73
2023/06/15 09:09:30;;;;;;;9.18;2.65;;;;;;;29.72;30.33;101598.41;5001898;28;20081;-73
2023/06/15 09:11:56;;;;;;;10.18;3.17;;;;;;;29.85;29.85;101603.25;5005943;28;20042;-74
2023/06/15 09:14:22;;;;;;;6.50;2.80;;;;;;;29.89;29.51;101593.66;5004241;28;20551;-73
2023/06/15 09:16:50;;;;;;;9.95;2.75;;;;;;;29.82;27.79;101589.63;5004414;28;20109;-73
2023/06/15 09:19:16;;;;;;;13.60;3.20;;;;;;;29.95;28.92;101590.97;4999315;28;20124;-74
2023/06/15 09:21:52;;;;;;;6.28;2.45;;;;;;;30.06;29.77;101582.69;5004113;28;20037;-73
2023/06/15 09:24:29;;;;;;;11.70;3.00;;;;;;;30.61;29.23;101584.72;5000621;28;20058;-74
2023/06/15 09:26:55;;;;;;;7.47;2.88;;;;;;;29.84;29.23;101587.50;5000790;28;20041;-73
2023/06/15 09:29:22;;;;;;;4.88;2.35;;;;;;;29.21;30.81;101587.63;5000916;28;20045;-73
2023/06/15 09:31:48;;;;;;;6.85;2.90;;;;;;;28.77;31.07;101586.09;5002742;28;20026;-74
2023/06/15 09:34:14;;;;;;;6.00;2.55;;;;;;;29.07;30.74;101587.28;5002343;28;20056;-73
2023/06/15 09:36:46;;;;;;;5.63;3.08;;;;;;;29.05;29.68;101584.88;5003628;28;20046;-74
2023/06/15 09:39:13;;;;;;;8.52;3.10;;;;;;;29.40;29.02;101574.59;5020893;28;20037;-73
2023/06/15 09:42:01;;;;;;;6.57;2.80;;;;;;;29.67;28.67;101574.38;4996278;28;20030;-74
2023/06/15 09:44:27;;;;;;;7.53;3.33;;;;;;;30.02;27.73;101573.56;5001033;28;20053;-73
2023/06/15 09:46:57;;;;;;;8.57;3.25;;;;;;;30.05;28.21;101580.28;5002816;28;20030;-74
2023/06/15 09:49:25;;;;;;;9.70;3.03;;;;;;;29.68;28.98;101576.75;4987232;28;20046;-74
2023/06/15 09:51:51;;;;;;;6.45;2.78;;;;;;;29.99;29.39;101574.13;4979800;28;20027;-74
2023/06/15 09:54:22;;;;;;;6.80;2.70;;;;;;;29.78;28.36;101572.50;4994218;28;20420;-75
2023/06/15 09:56:50;;;;;;;8.38;2.92;;;;;;;29.67;28.69;101579.72;4984011;28;20030;-74
2023/06/15 09:59:20;;;;;;;8.50;3.15;;;;;;;29.04;28.88;101579.78;4978169;28;20050;-74
2023/06/15 10:01:50;;;;;;;5.80;3.03;;;;;;;28.19;29.53;101582.50;4982153;28;20664;-74
2023/06/15 10:04:19;;;;;;;10.82;3.20;;;;;;;27.95;30.11;101591.66;4980832;28;20636;-74
2023/06/15 10:06:54;;;;;;;7.40;3.10;;;;;;;27.97;29.55;101580.72;4985967;28;20117;-74
2023/06/15 10:09:25;;;;;;;4.70;2.80;;;;;;;27.94;30.04;101587.38;4994002;28;20509;-74
2023/06/15 10:11:55;;;;;;;4.53;2.47;;;;;;;27.87;30.65;101591.28;5006032;28;20501;-74
2023/06/15 10:15:04;;;;;;;4.30;2.42;;;;;;;28.21;31.39;101581.19;4994805;28;20113;-74
2023/06/15 10:17:34;;;;;;;8.50;2.28;;;;;;;28.50;30.73;101576.31;4986130;28;20046;-74
2023/06/15 10:20:08;;;;;;;5.30;2.75;;;;;;;28.90;29.44;101574.94;4995602;28;20080;-74
2023/06/15 10:23:09;;;;;;;5.63;3.15;;;;;;;28.87;29.26;101571.97;4984507;28;20042;-74
2023/06/15 10:25:36;;;;;;;8.05;3.05;;;;;;;28.50;28.69;101578.97;4976481;28;20054;-74
2023/06/15 10:28:09;;;;;;;7.28;3.38;;;;;;;28.53;30.67;101586.47;4973226;28;20040;-74
2023/06/15 10:30:58;;;;;;;7.45;3.33;;;;;;;28.77;30.89;101575.41;5002983;28;20034;-74
2023/06/15 10:33:35;;;;;;;5.80;3.05;;;;;;;28.84;31.67;101586.66;5002704;28;20169;-74
2023/06/15 10:36:12;;;;;;;3.95;2.80;;;;;;;29.16;30.98;101572.41;5006979;28;20034;-74
2023/06/15 10:38:47;;;;;;;9.23;3.28;;;;;;;29.28;30.34;101577.50;5001861;28;20129;-74
2023/06/15 10:41:14;;;;;;;6.85;3.13;;;;;;;29.51;29.65;101571.66;5004881;28;20044;-74
2023/06/15 10:43:39;;;;;;;10.77;3.25;;;;;;;29.79;29.60;101568.78;5005205;28;20669;-73
2023/06/15 10:46:06;;;;;;;8.48;3.00;;;;;;;29.58;29.48;101566.06;5005379;28;20045;-74
2023/06/15 10:48:38;;;;;;;5.88;3.20;;;;;;;29.74;28.73;101560.75;5000543;28;20050;-74
2023/06/15 10:51:08;;;;;;;8.43;3.20;;;;;;;29.66;28.90;101567.41;4983458;28;20177;-74
2023/06/15 10:53:45;;;;;;;8.85;3.33;;;;;;;29.85;29.12;101567.72;5001051;28;20465;-74
2023/06/15 10:56:16;;;;;;;7.88;3.00;;;;;;;30.36;28.83;101562.31;5002479;28;20101;-74
2023/06/15 10:58:58;;;;;;;12.07;3.67;;;;;;;30.01;28.62;101568.53;4983531;28;20046;-74
2023/06/15 11:01:26;;;;;;;8.10;3.67;;;;;;;29.82;29.08;101568.22;4981056;28;20496;-74
2023/06/15 11:03:53;;;;;;;7.35;3.45;;;;;;;29.42;29.47;101565.25;4985669;28;20501;-74
2023/06/15 11:06:21;;;;;;;8.48;3.03;;;;;;;28.82;30.25;101567.44;4984741;28;20062;-74
2023/06/15 11:08:48;;;;;;;5.43;3.38;;;;;;;28.35;30.19;101571.69;4986216;28;20046;-75
2023/06/15 11:11:22;;;;;;;5.55;3.25;;;;;;;28.49;30.32;101564.03;4985157;28;20045;-75
2023/06/15 11:14:23;;;;;;;5.53;2.90;;;;;;;28.52;30.59;101568.09;4988419;28;20045;-75
2023/06/15 11:17:06;;;;;;;5.47;3.30;;;;;;;28.29;30.23;101570.06;5005904;28;20061;-75
2023/06/15 11:19:40;;;;;;;8.07;3.28;;;;;;;28.43;30.98;101574.94;5003451;28;20046;-74
2023/06/15 11:22:07;;;;;;;5.80;3.53;;;;;;;28.79;29.36;101570.63;5003857;28;20050;-75
2023/06/15 11:24:39;;;;;;;10.65;3.35;;;;;;;28.83;29.38;101566.34;5003757;28;20550;-74
2023/06/15 11:27:08;;;;;;;6.22;3.67;;;;;;;29.00;29.21;101565.38;5005966;28;20040;-75
2023/06/15 11:29:43;;;;;;;8.73;3.10;;;;;;;29.45;29.20;101558.56;5004420;28;20262;-74